Marathon, Florida
Current Conditions -  °F | °C
As of 9:53 AM on Wednesday 22 Oct 2014 (Local Time) from KMTH Reporting Station
Overcast Overcast  
Wind Chill: 76°   Ceiling: 8000
Heat Index: 76°   Visibility: 10mi
Dew Point: 72°   Wind: 8mph
Humidity: 87%   Direction: 130°SE
Pressure: 29.97"   Gusts: NA
Location:  24.73°N, 81.04°W
Report Text: KMTH 221353Z AUTO 13007KT 10SM FEW012 BKN080 OVC095 24/22 A2997 RMK AO2 RAB20E52 SLP147 P0000 T02440222
Loading
Personal Weather Stations






























Interactive Weather Map New forecast layout! Learn more

10-Day Weather Forecast

Advertisements
Track Severe Weather on mobile